createdAt,value
2023-03-24T00:03:02.680Z,60.66
2023-03-24T00:07:06.121Z,60.81
2023-03-24T00:11:11.708Z,60.81
2023-03-24T00:15:19.099Z,60.97
2023-03-24T00:19:23.671Z,61.23
2023-03-24T00:23:28.037Z,61.38
2023-03-24T00:27:36.775Z,61.13
2023-03-24T00:31:40.611Z,61.13
2023-03-24T00:35:45.873Z,61.19
2023-03-24T00:39:50.040Z,61.08
2023-03-24T00:43:56.342Z,60.95
2023-03-24T00:47:59.924Z,61.09
2023-03-24T00:52:10.268Z,61.33
2023-03-24T00:56:15.625Z,61.11
2023-03-24T01:00:21.285Z,61.13
2023-03-24T01:04:26.338Z,61.18
2023-03-24T01:08:30.966Z,61.59
2023-03-24T01:12:36.966Z,61.61
2023-03-24T01:16:40.935Z,62.01
2023-03-24T01:20:46.585Z,62.59
2023-03-24T01:24:53.148Z,63.03
2023-03-24T01:28:56.959Z,63.12
2023-03-24T01:33:00.592Z,63.21
2023-03-24T01:37:04.593Z,63.36
2023-03-24T01:41:09.752Z,63.66
2023-03-24T01:45:45.657Z,63.71
2023-03-24T01:49:53.857Z,63.70
2023-03-24T01:54:01.257Z,63.73
2023-03-24T01:58:07.356Z,63.54
2023-03-24T02:02:30.075Z,63.51
2023-03-24T02:06:36.262Z,63.52
2023-03-24T02:10:40.399Z,63.42
2023-03-24T02:14:45.264Z,63.43
2023-03-24T02:18:57.201Z,63.54
2023-03-24T02:23:31.063Z,63.74
2023-03-24T02:27:55.118Z,63.47
2023-03-24T02:32:24.448Z,63.86
2023-03-24T02:36:58.415Z,64.00
2023-03-24T02:41:07.998Z,63.54
2023-03-24T02:45:25.056Z,63.75
2023-03-24T02:49:36.993Z,63.82
2023-03-24T02:53:52.722Z,63.89
2023-03-24T02:58:08.596Z,63.96
2023-03-24T03:02:28.709Z,64.03
2023-03-24T03:06:39.730Z,64.11
2023-03-24T03:10:46.540Z,63.82
2023-03-24T03:14:56.207Z,64.36
2023-03-24T03:19:03.408Z,64.58
2023-03-24T03:23:13.395Z,65.08
2023-03-24T03:27:20.532Z,65.23
2023-03-24T03:31:31.035Z,65.75
2023-03-24T03:35:38.857Z,65.80
2023-03-24T03:39:48.658Z,65.93
2023-03-24T03:43:53.325Z,66.21
2023-03-24T03:47:58.299Z,66.32
2023-03-24T03:52:01.691Z,66.56
2023-03-24T03:56:05.510Z,65.94
2023-03-24T04:00:20.543Z,65.86
2023-03-24T04:05:15.114Z,66.06
2023-03-24T04:09:36.914Z,65.83
2023-03-24T04:13:53.991Z,65.97
2023-03-24T04:18:27.265Z,65.54
2023-03-24T04:22:50.064Z,65.98
2023-03-24T04:27:00.770Z,65.89
2023-03-24T04:31:14.516Z,65.45
2023-03-24T04:35:26.444Z,65.55
2023-03-24T04:39:59.102Z,65.91
2023-03-24T04:44:03.398Z,65.99
2023-03-24T04:48:12.127Z,66.03
2023-03-24T04:52:41.404Z,66.32
2023-03-24T04:56:49.599Z,66.18
2023-03-24T05:00:59.645Z,65.89
2023-03-24T05:05:06.624Z,65.21
2023-03-24T05:09:14.473Z,65.07
2023-03-24T05:13:19.111Z,64.95
2023-03-24T05:17:26.546Z,64.88
2023-03-24T05:21:31.875Z,65.08
2023-03-24T05:25:36.675Z,64.91
2023-03-24T05:29:41.540Z,64.86
2023-03-24T05:33:47.336Z,64.64
2023-03-24T05:37:53.852Z,64.40
2023-03-24T05:41:57.083Z,64.45
2023-03-24T05:46:01.613Z,64.68
2023-03-24T05:50:09.633Z,64.70
2023-03-24T05:54:13.290Z,64.42
2023-03-24T05:58:19.978Z,64.61
2023-03-24T06:02:28.685Z,64.45
2023-03-24T06:06:38.347Z,64.65
2023-03-24T06:10:41.756Z,64.78
2023-03-24T06:14:45.574Z,64.86
2023-03-24T06:18:52.815Z,65.47
2023-03-24T06:23:16.742Z,65.40
2023-03-24T06:27:46.231Z,65.25
2023-03-24T06:31:50.214Z,64.61
2023-03-24T06:35:55.735Z,64.34
2023-03-24T06:39:58.795Z,64.32
2023-03-24T06:44:05.974Z,64.42
2023-03-24T06:48:09.895Z,64.10
2023-03-24T06:52:14.578Z,63.65
2023-03-24T06:56:21.106Z,63.59
2023-03-24T07:00:30.282Z,63.48
2023-03-24T07:04:43.967Z,63.02
2023-03-24T07:08:55.353Z,62.90
2023-03-24T07:13:03.302Z,63.01
2023-03-24T07:17:08.574Z,63.17
2023-03-24T07:21:20.536Z,62.45
2023-03-24T07:25:28.077Z,62.38
2023-03-24T07:29:38.309Z,62.33
2023-03-24T07:33:55.197Z,62.27
2023-03-24T07:37:59.328Z,62.03
2023-03-24T07:42:03.995Z,61.80
2023-03-24T07:46:25.437Z,61.75
2023-03-24T07:50:29.283Z,61.45
2023-03-24T07:54:32.794Z,61.35
2023-03-24T07:58:37.253Z,61.04
2023-03-24T08:03:01.338Z,60.56
2023-03-24T08:07:22.993Z,60.57
2023-03-24T08:11:25.970Z,60.79
2023-03-24T08:15:30.468Z,60.54
2023-03-24T08:19:33.549Z,60.60
2023-03-24T08:23:37.119Z,60.23
2023-03-24T08:27:43.462Z,60.36
2023-03-24T08:31:48.005Z,59.95
2023-03-24T08:35:51.649Z,60.60
2023-03-24T08:39:58.778Z,60.88
2023-03-24T08:44:06.246Z,60.54
2023-03-24T08:48:12.072Z,59.90
2023-03-24T08:52:15.130Z,59.51
2023-03-24T08:56:18.582Z,58.53
2023-03-24T09:00:22.699Z,58.01
2023-03-24T09:04:27.491Z,57.62
2023-03-24T09:08:31.583Z,57.28
2023-03-24T09:12:34.679Z,56.67
2023-03-24T09:16:38.038Z,56.67
2023-03-24T09:20:42.720Z,55.63
2023-03-24T09:24:45.767Z,55.26
2023-03-24T09:28:48.819Z,54.51
2023-03-24T09:32:51.992Z,54.38
2023-03-24T09:36:56.527Z,53.66
2023-03-24T09:41:03.010Z,53.45
2023-03-24T09:45:13.200Z,53.19
2023-03-24T09:49:23.612Z,53.13
2023-03-24T09:53:37.033Z,51.85
2023-03-24T09:57:42.301Z,51.91
2023-03-24T10:01:45.610Z,52.10
2023-03-24T10:05:55.386Z,51.79
2023-03-24T10:10:01.909Z,51.46
2023-03-24T10:14:15.339Z,51.27
2023-03-24T10:18:31.946Z,51.44
2023-03-24T10:22:41.379Z,50.83
2023-03-24T10:26:54.139Z,50.11
2023-03-24T10:31:01.511Z,49.85
2023-03-24T10:35:10.065Z,49.82
2023-03-24T10:39:19.996Z,49.79
2023-03-24T10:43:28.268Z,49.13
2023-03-24T10:47:33.992Z,49.79
2023-03-24T10:51:37.762Z,49.15
2023-03-24T10:55:43.436Z,48.83
2023-03-24T10:59:56.075Z,49.26
2023-03-24T11:04:04.516Z,49.45
2023-03-24T11:08:26.002Z,49.42
2023-03-24T11:12:31.185Z,49.12
2023-03-24T11:16:39.612Z,48.89
2023-03-24T11:20:45.972Z,48.88
2023-03-24T11:24:51.999Z,48.80
2023-03-24T11:28:58.157Z,48.49
2023-03-24T11:33:05.006Z,48.49
2023-03-24T11:37:13.261Z,48.14
2023-03-24T11:41:22.697Z,48.23
2023-03-24T11:45:35.689Z,48.65
2023-03-24T11:49:46.349Z,48.51
2023-03-24T11:53:52.747Z,48.28
2023-03-24T11:57:59.331Z,48.32
2023-03-24T12:02:13.246Z,48.08
2023-03-24T12:06:31.714Z,48.01
2023-03-24T12:10:46.006Z,48.20
2023-03-24T12:15:07.814Z,47.78
2023-03-24T12:19:45.151Z,47.66
2023-03-24T12:23:58.761Z,47.85
2023-03-24T12:28:20.011Z,47.70
2023-03-24T12:32:49.510Z,47.16
2023-03-24T12:37:01.344Z,47.00
2023-03-24T12:41:40.601Z,47.36
2023-03-24T12:45:49.622Z,47.51
2023-03-24T12:50:11.287Z,47.60
2023-03-24T12:54:27.597Z,46.99
2023-03-24T12:58:41.545Z,47.14
2023-03-24T13:02:49.985Z,47.24
2023-03-24T13:07:00.833Z,47.24
2023-03-24T13:11:14.901Z,47.57
2023-03-24T13:15:31.643Z,47.16
2023-03-24T13:19:38.719Z,47.26
2023-03-24T13:23:56.739Z,47.25
2023-03-24T13:28:06.347Z,47.04
2023-03-24T13:32:17.315Z,47.33
2023-03-24T13:36:43.026Z,46.85
2023-03-24T13:40:51.900Z,47.01
2023-03-24T13:44:54.792Z,46.76
2023-03-24T13:49:00.278Z,46.73
2023-03-24T13:53:14.054Z,46.73
2023-03-24T13:57:20.543Z,46.61
2023-03-24T14:01:35.495Z,46.61
2023-03-24T14:05:57.693Z,46.95
2023-03-24T14:10:03.689Z,46.70
2023-03-24T14:14:08.709Z,46.08
2023-03-24T14:18:43.345Z,45.73
2023-03-24T14:22:48.553Z,46.39
2023-03-24T14:26:51.597Z,46.53
2023-03-24T14:31:15.515Z,45.91
2023-03-24T14:35:37.164Z,46.53
2023-03-24T14:39:42.952Z,46.61
2023-03-24T14:44:03.776Z,46.66
2023-03-24T14:48:18.104Z,46.92
2023-03-24T14:52:26.259Z,47.39
2023-03-24T14:56:36.128Z,47.28
2023-03-24T15:00:51.711Z,47.01
2023-03-24T15:05:26.103Z,47.30
2023-03-24T15:09:30.552Z,47.33
2023-03-24T15:13:37.329Z,47.36
2023-03-24T15:17:43.444Z,47.67
2023-03-24T15:21:48.576Z,47.73
2023-03-24T15:25:54.702Z,48.03
2023-03-24T15:30:01.096Z,48.70
2023-03-24T15:34:24.066Z,49.18
2023-03-24T15:38:31.528Z,49.92
2023-03-24T15:42:42.541Z,50.62
2023-03-24T15:46:46.050Z,51.61
2023-03-24T15:51:00.400Z,53.47
2023-03-24T15:55:08.767Z,55.28
2023-03-24T15:59:16.151Z,56.01
2023-03-24T16:03:19.310Z,56.84
2023-03-24T16:07:29.665Z,57.42
2023-03-24T16:11:32.834Z,57.63
2023-03-24T16:15:37.323Z,57.97
2023-03-24T16:19:40.546Z,58.70
2023-03-24T16:23:44.145Z,58.76
2023-03-24T16:27:47.183Z,59.47
2023-03-24T16:31:53.265Z,59.63
2023-03-24T16:35:56.289Z,59.90
2023-03-24T16:40:01.153Z,60.26
2023-03-24T16:44:05.397Z,60.76
2023-03-24T16:48:10.868Z,61.10
2023-03-24T16:52:14.026Z,61.83
2023-03-24T16:56:19.667Z,62.37
2023-03-24T17:00:23.697Z,62.88
2023-03-24T17:04:31.120Z,63.58
2023-03-24T17:08:34.052Z,64.29
2023-03-24T17:12:37.535Z,64.76
2023-03-24T17:16:43.546Z,65.05
2023-03-24T17:20:48.501Z,65.18
2023-03-24T17:24:57.578Z,65.60
2023-03-24T17:29:00.550Z,65.59
2023-03-24T17:33:03.736Z,65.92
2023-03-24T17:37:08.274Z,65.90
2023-03-24T17:41:11.513Z,66.24
2023-03-24T17:45:16.095Z,66.73
2023-03-24T17:49:19.097Z,66.77
2023-03-24T17:53:25.655Z,67.15
2023-03-24T17:57:28.766Z,67.35
2023-03-24T18:01:35.042Z,67.77
2023-03-24T18:05:38.349Z,67.73
2023-03-24T18:09:42.668Z,68.14
2023-03-24T18:13:46.146Z,68.09
2023-03-24T18:17:49.190Z,68.32
2023-03-24T18:21:52.293Z,68.62
2023-03-24T18:26:02.229Z,68.76
2023-03-24T18:30:06.823Z,69.39
2023-03-24T18:34:09.901Z,69.83
2023-03-24T18:38:15.220Z,70.19
2023-03-24T18:42:19.718Z,70.38
2023-03-24T18:46:23.535Z,70.82
2023-03-24T18:50:26.595Z,71.23
2023-03-24T18:54:29.661Z,71.99
2023-03-24T18:58:34.976Z,72.21
2023-03-24T19:02:38.087Z,72.75
2023-03-24T19:06:42.495Z,72.77
2023-03-24T19:10:46.202Z,73.24
2023-03-24T19:14:50.754Z,73.42
2023-03-24T19:18:54.055Z,73.75
2023-03-24T19:22:57.031Z,74.17
2023-03-24T19:27:00.853Z,74.42
2023-03-24T19:31:10.718Z,74.80
2023-03-24T19:35:14.228Z,75.18
2023-03-24T19:39:17.457Z,75.80
2023-03-24T19:43:20.728Z,76.02
2023-03-24T19:47:25.069Z,76.16
2023-03-24T19:51:28.113Z,76.17
2023-03-24T19:55:31.486Z,76.05
2023-03-24T19:59:35.343Z,76.03
2023-03-24T20:03:40.089Z,76.12
2023-03-24T20:07:43.248Z,75.81
2023-03-24T20:11:47.558Z,75.83
2023-03-24T20:15:50.937Z,76.57
2023-03-24T20:20:04.347Z,76.49
2023-03-24T20:24:08.009Z,76.45
2023-03-24T20:28:10.980Z,76.76
2023-03-24T20:32:14.418Z,76.76
2023-03-24T20:36:19.112Z,76.91
2023-03-24T20:40:22.263Z,76.96
2023-03-24T20:44:25.543Z,77.05
2023-03-24T20:48:29.534Z,77.14
2023-03-24T20:52:34.969Z,77.29
2023-03-24T20:56:38.672Z,77.35
2023-03-24T21:00:46.204Z,77.15
2023-03-24T21:04:49.691Z,76.46
2023-03-24T21:08:54.965Z,75.47
2023-03-24T21:12:58.014Z,74.73
2023-03-24T21:17:01.414Z,74.51
2023-03-24T21:21:04.875Z,73.58
2023-03-24T21:25:09.752Z,72.76
2023-03-24T21:29:13.150Z,72.41
2023-03-24T21:33:16.805Z,72.37
2023-03-24T21:37:19.875Z,72.30
2023-03-24T21:41:24.330Z,71.76
2023-03-24T21:45:27.695Z,71.87
2023-03-24T21:49:30.664Z,71.72
2023-03-24T21:53:35.028Z,72.21
2023-03-24T21:57:39.453Z,71.59
2023-03-24T22:01:42.791Z,71.75
2023-03-24T22:05:45.949Z,70.92
2023-03-24T22:09:50.801Z,70.19
2023-03-24T22:13:55.188Z,69.83
2023-03-24T22:17:58.745Z,69.70
2023-03-24T22:22:02.186Z,69.55
2023-03-24T22:26:07.554Z,68.77
2023-03-24T22:30:14.685Z,68.27
2023-03-24T22:34:17.781Z,67.98
2023-03-24T22:38:20.818Z,66.89
2023-03-24T22:42:23.940Z,67.18
2023-03-24T22:46:28.357Z,65.02
2023-03-24T22:50:31.452Z,65.04
2023-03-24T22:54:34.630Z,64.26
2023-03-24T22:58:37.682Z,64.08
2023-03-24T23:02:42.451Z,64.11
2023-03-24T23:06:46.172Z,63.21
2023-03-24T23:10:49.277Z,62.30
2023-03-24T23:14:54.427Z,62.48
2023-03-24T23:18:58.928Z,62.12
2023-03-24T23:23:03.748Z,61.98
2023-03-24T23:27:08.105Z,61.54
2023-03-24T23:31:13.556Z,61.68
2023-03-24T23:35:24.822Z,61.27
2023-03-24T23:39:27.952Z,61.31
2023-03-24T23:43:30.917Z,61.57
2023-03-24T23:47:34.683Z,61.50
2023-03-24T23:51:39.070Z,61.29
2023-03-24T23:55:42.345Z,61.32
2023-03-24T23:59:45.973Z,61.72
